Thomson Dream — 9HA2381 — position and weather

sailwx.info

Track history (hours):
 
Tides and Currents Weather Stations Pressure Air Temp Water Temp Dewpoint Dewpoint Depression Visibility Wind Speed Wind Dir Waves Ship Positions

Thomson Dream

Last reported at 2018-Apr-26 00:00 UTC. Time now 2018-Apr-26 00:18 UTC.
Position N 37°19' W 009°16'.

Length 243 m; draft 7.6 m.

Type: Ship. MMSI: 248480975.

Date/timePositionNaut miles runAvg speedWind from/ knotsBaromVisibWave heightAir tempDewpointWater temp
2018-Apr-26 00:00N 37°19' W 009°16'510.9
2018-Apr-25 23:31N 37°25' W 009°17'611.5
2018-Apr-25 23:00N 37°31' W 009°17'611.9
2018-Apr-25 22:30N 37°36' W 009°17'611.7
2018-Apr-25 22:00N 37°42' W 009°17'611.8
2018-Apr-25 21:30N 37°48' W 009°19'612.4
2018-Apr-25 21:00N 37°54' W 009°19'917.5
2018-Apr-25 20:30N 38°03' W 009°18'917.7
2018-Apr-25 20:00N 38°12' W 009°17'816.8
2018-Apr-25 19:30N 38°19' W 009°21'816.7
2018-Apr-25 19:00N 38°27' W 009°25'612.6
2018-Apr-25 18:30N 38°33' W 009°24'816.2
2018-Apr-25 18:00N 38°40' W 009°18'611.2
2018-Apr-25 17:30N 38°41' W 009°11'3 6.0
2018-Apr-25 16:58N 38°43' W 009°07'0 0.0
2018-Apr-25 16:30N 38°43' W 009°07'0 0.0
2018-Apr-25 15:59N 38°43' W 009°07'0 0.0
2018-Apr-25 15:30N 38°43' W 009°07'0 0.0
2018-Apr-25 15:00N 38°43' W 009°07'0 0.0
2018-Apr-25 14:29N 38°43' W 009°07'0 0.0
2018-Apr-25 13:58N 38°43' W 009°07'0 0.0
2018-Apr-25 13:30N 38°43' W 009°07'0 0.0
2018-Apr-25 12:59N 38°43' W 009°07'0 0.0
2018-Apr-25 12:29N 38°43' W 009°07'0 0.0
2018-Apr-25 11:59N 38°43' W 009°07'0 0.0
2018-Apr-25 11:29N 38°43' W 009°07'0 0.0
2018-Apr-25 10:58N 38°43' W 009°07'0 0.0
2018-Apr-25 10:26N 38°43' W 009°07'0 0.0
2018-Apr-25 09:58N 38°43' W 009°07'0 0.0
2018-Apr-25 09:30N 38°43' W 009°07'0 0.0
2018-Apr-25 09:00N 38°43' W 009°07'0 0.0
2018-Apr-25 08:29N 38°43' W 009°07'0 0.0
2018-Apr-25 07:59N 38°43' W 009°07'0 0.0
2018-Apr-25 07:29N 38°43' W 009°07'0 0.0
2018-Apr-25 06:59N 38°43' W 009°07'0 0.1
2018-Apr-25 06:30N 38°43' W 009°07'0 0.8
2018-Apr-25 06:01N 38°42' W 009°08'4 8.3
2018-Apr-25 05:31N 38°41' W 009°13'5 9.2
2018-Apr-25 05:01N 38°40' W 009°18'611.1
2018-Apr-25 04:30N 38°36' W 009°23'713.1
2018-Apr-25 04:01N 38°31' W 009°29'815.1
2018-Apr-25 03:31N 38°26' W 009°36'715.0
2018-Apr-25 03:01N 38°21' W 009°43'815.3
2018-Apr-25 02:30N 38°15' W 009°49'815.2
2018-Apr-25 02:01N 38°10' W 009°56'815.0
2018-Apr-25 01:30N 38°04' W 010°03'715.0
2018-Apr-25 01:00N 37°59' W 010°10'715.0
2018-Apr-25 00:31N 37°54' W 010°16'815.0
2018-Apr-25 00:00N 37°49' W 010°23'815.2
2018-Apr-24 23:30N 37°43' W 010°29'815.4
2018-Apr-24 23:01N 37°37' W 010°36'815.5
2018-Apr-24 22:31N 37°32' W 010°43'815.4
2018-Apr-24 21:59N 37°26' W 010°50'715.4
2018-Apr-24 21:30N 37°21' W 010°57'815.0
2018-Apr-24 21:00N 37°16' W 011°03'815.1
2018-Apr-24 20:30N 37°10' W 011°10'815.3
2018-Apr-24 19:58N 37°04' W 011°17'915.4
2018-Apr-24 19:23N 36°58' W 011°25'  
2018-Apr-22 00:58N 28°40' W 015°56'916.4
2018-Apr-22 00:26N 28°38' W 015°46'716.1
2018-Apr-22 00:00N 28°34' W 015°39'816.0
2018-Apr-21 23:30N 28°28' W 015°34'815.7
2018-Apr-21 22:59N 28°21' W 015°28'715.4
2018-Apr-21 22:30N 28°15' W 015°23'714.3
2018-Apr-21 21:59N 28°08' W 015°22'3 5.8
2018-Apr-21 21:30N 28°08' W 015°25'0 0.4
2018-Apr-21 20:59N 28°08' W 015°25'0 0.0
2018-Apr-21 20:26N 28°08' W 015°25'0 0.0
2018-Apr-21 19:59N 28°08' W 015°25'0 0.0
2018-Apr-21 19:29N 28°08' W 015°25'0 0.0
2018-Apr-21 18:59N 28°08' W 015°25'0 0.0
2018-Apr-21 18:29N 28°08' W 015°25'0 0.0
2018-Apr-21 17:47N 28°08' W 015°25'0 0.0
2018-Apr-21 17:29N 28°08' W 015°25'0 0.0
2018-Apr-21 16:59N 28°08' W 015°25'0 0.0
2018-Apr-21 16:29N 28°08' W 015°25'0 0.0
2018-Apr-21 15:35N 28°08' W 015°25'0 0.0
2018-Apr-21 15:29N 28°08' W 015°25'0 0.0
2018-Apr-21 14:50N 28°08' W 015°25'0 0.0
2018-Apr-21 14:20N 28°08' W 015°25'0 0.0
2018-Apr-21 13:50N 28°08' W 015°25'0 0.0
2018-Apr-21 13:23N 28°08' W 015°25'0 0.0
2018-Apr-21 12:53N 28°08' W 015°25'0 0.0
2018-Apr-21 12:20N 28°08' W 015°25'0 0.0
2018-Apr-21 11:50N 28°08' W 015°25'0 0.0
2018-Apr-21 11:20N 28°08' W 015°25'0 0.0
2018-Apr-21 10:50N 28°08' W 015°25'0 0.0
2018-Apr-21 10:26N 28°08' W 015°25'0 0.0
2018-Apr-21 09:56N 28°08' W 015°25'0 0.0
2018-Apr-21 09:26N 28°08' W 015°25'0 0.0
2018-Apr-21 08:56N 28°08' W 015°25'0 0.0
2018-Apr-21 08:14N 28°08' W 015°25'0 0.0
2018-Apr-21 07:59N 28°08' W 015°25'0 0.0
2018-Apr-21 07:29N 28°08' W 015°25'0 0.0
2018-Apr-21 06:59N 28°08' W 015°25'0 0.4
2018-Apr-21 06:30N 28°08' W 015°25'2 4.0
2018-Apr-21 06:00N 28°07' W 015°23'4 8.3
2018-Apr-21 05:30N 28°09' W 015°20'510.6
2018-Apr-21 05:00N 28°15' W 015°20'610.8
2018-Apr-21 04:30N 28°20' W 015°21'611.3
2018-Apr-21 04:00N 28°25' W 015°24'611.6
2018-Apr-21 03:30N 28°28' W 015°29'816.5
2018-Apr-21 03:00N 28°33' W 015°37'816.8
2018-Apr-21 02:30N 28°37' W 015°45'815.1
2018-Apr-21 01:59N 28°36' W 015°54'816.9
2018-Apr-21 01:30N 28°32' W 016°02'816.6
2018-Apr-21 01:01N 28°28' W 016°11'3 6.8
2018-Apr-21 00:31N 28°28' W 016°15'0 0.4
2018-Apr-21 00:00N 28°28' W 016°15'0 0.0
2018-Apr-20 23:30N 28°28' W 016°15'0 0.0
2018-Apr-20 23:00N 28°28' W 016°15'0 0.0
2018-Apr-20 22:30N 28°28' W 016°15'0 0.0
2018-Apr-20 22:00N 28°28' W 016°15'0 0.0
2018-Apr-20 21:30N 28°28' W 016°15'0 0.0
2018-Apr-20 21:00N 28°28' W 016°15'0 0.0
2018-Apr-20 20:30N 28°28' W 016°15'0 0.0
2018-Apr-20 20:00N 28°28' W 016°15'0 0.0
2018-Apr-20 19:30N 28°28' W 016°15'0 0.0
2018-Apr-20 18:57N 28°28' W 016°15'0 0.0
2018-Apr-20 18:30N 28°28' W 016°15'0 0.0
2018-Apr-20 18:00N 28°28' W 016°15'0 0.0
2018-Apr-20 17:30N 28°28' W 016°15'0 0.0
2018-Apr-20 17:00N 28°28' W 016°15'0 0.0
2018-Apr-20 16:30N 28°28' W 016°15'0 0.0
2018-Apr-20 16:00N 28°28' W 016°15'0 0.0
2018-Apr-20 15:30N 28°28' W 016°15'0 0.0
2018-Apr-20 15:00N 28°28' W 016°15'0 0.0
2018-Apr-20 14:30N 28°28' W 016°15'0 0.0
2018-Apr-20 14:00N 28°28' W 016°15'0 0.0
2018-Apr-20 13:30N 28°28' W 016°15'0 0.0
2018-Apr-20 13:00N 28°28' W 016°15'0 0.0
2018-Apr-20 12:30N 28°28' W 016°15'0 0.0
2018-Apr-20 11:59N 28°28' W 016°15'0 0.0
2018-Apr-20 11:29N 28°28' W 016°15'0 0.0
2018-Apr-20 10:59N 28°28' W 016°15'0 0.0
2018-Apr-20 10:29N 28°28' W 016°15'0 0.0
2018-Apr-20 09:58N 28°28' W 016°15'0 0.0
2018-Apr-20 09:28N 28°28' W 016°15'0 0.0
2018-Apr-20 08:58N 28°28' W 016°15'0 0.0
2018-Apr-20 08:28N 28°28' W 016°15'0 0.0
2018-Apr-20 07:58N 28°28' W 016°15'0 0.0
2018-Apr-20 07:28N 28°28' W 016°15'0 0.0
2018-Apr-20 06:58N 28°28' W 016°15'0 0.0
2018-Apr-20 06:28N 28°28' W 016°15'0 0.0
2018-Apr-20 05:58N 28°28' W 016°15'0 0.2
2018-Apr-20 05:30N 28°28' W 016°15'2 3.9
2018-Apr-20 05:00N 28°29' W 016°12'5 9.5
2018-Apr-20 04:30N 28°30' W 016°07'611.6
2018-Apr-20 04:00N 28°32' W 016°01'611.6
2018-Apr-20 03:30N 28°35' W 015°55'611.7
2018-Apr-20 02:59N 28°38' W 015°49'511.5
2018-Apr-20 02:30N 28°40' W 015°43'611.2
2018-Apr-20 02:00N 28°40' W 015°37'611.4
2018-Apr-20 01:30N 28°40' W 015°30'612.1
2018-Apr-20 01:00N 28°41' W 015°24'611.2
2018-Apr-20 00:30N 28°42' W 015°17'511.0
2018-Apr-20 00:00N 28°42' W 015°11'611.1
2018-Apr-19 23:30N 28°43' W 015°05'611.5
2018-Apr-19 23:00N 28°43' W 014°58'6814.9
2018-Apr-19 18:27N 28°51' W 013°41'715.6
2018-Apr-19 18:00N 28°55' W 013°34'4 7.5
2018-Apr-19 17:30N 28°58' W 013°32'0 0.2
2018-Apr-19 15:50N 28°58' W 013°32'0 0.0
2018-Apr-19 15:08N 28°58' W 013°32'0 0.0
2018-Apr-19 14:55N 28°58' W 013°32'0 0.0
2018-Apr-19 14:25N 28°58' W 013°32'0 0.0
2018-Apr-19 13:58N 28°58' W 013°32'0 0.0
2018-Apr-19 13:27N 28°58' W 013°32'0 0.0
2018-Apr-19 12:57N 28°58' W 013°32'0 0.0
2018-Apr-19 12:30N 28°58' W 013°32'0 0.0
2018-Apr-19 12:00N 28°58' W 013°32'0 0.0
2018-Apr-19 11:27N 28°58' W 013°32'0 0.0
2018-Apr-19 10:33N 28°58' W 013°32'0 0.0
2018-Apr-19 10:03N 28°58' W 013°32'0 0.0
2018-Apr-19 09:45N 28°58' W 013°32'0 0.0
2018-Apr-19 09:30N 28°58' W 013°32'0 0.0
2018-Apr-19 08:48N 28°58' W 013°32'0 0.0
2018-Apr-19 08:27N 28°58' W 013°32'0 0.0
2018-Apr-19 07:40N 28°58' W 013°32'0 0.1
2018-Apr-19 07:30N 28°58' W 013°32'1 2.0
2018-Apr-19 07:00N 28°57' W 013°31'611.6
2018-Apr-19 06:30N 28°59' W 013°25'611.4
2018-Apr-19 06:00N 29°02' W 013°19'611.5
2018-Apr-19 05:29N 29°04' W 013°13'611.5
2018-Apr-19 05:00N 29°07' W 013°07'815.0
2018-Apr-19 04:28N 29°11' W 012°59'817.0
2018-Apr-19 04:00N 29°14' W 012°51'816.2
2018-Apr-19 03:30N 29°16' W 012°42'816.1
2018-Apr-19 03:00N 29°19' W 012°33'916.2
2018-Apr-19 02:28N 29°23' W 012°25'716.0
2018-Apr-19 02:01N 29°26' W 012°17'816.9
2018-Apr-19 01:31N 29°29' W 012°08'917.9
2018-Apr-19 01:00N 29°32' W 011°58'815.9
2018-Apr-19 00:30N 29°35' W 011°50'815.6
2018-Apr-19 00:01N 29°38' W 011°42'815.6
2018-Apr-18 23:31N 29°41' W 011°33'815.6
2018-Apr-18 23:00N 29°44' W 011°25'815.6
2018-Apr-18 22:30N 29°47' W 011°17'815.7
2018-Apr-18 22:00N 29°51' W 011°08'815.9
2018-Apr-18 21:30N 29°54' W 011°00'815.9
2018-Apr-18 21:00N 29°57' W 010°52'815.8
2018-Apr-18 20:30N 29°60' W 010°43'816.0
2018-Apr-18 20:00N 30°03' W 010°35'816.1
2018-Apr-18 19:30N 30°06' W 010°26'816.1
2018-Apr-18 19:00N 30°09' W 010°18'816.1
2018-Apr-18 18:31N 30°12' W 010°09'815.6
2018-Apr-18 18:00N 30°14' W 010°00'714.1
2018-Apr-18 17:31N 30°16' W 009°52'57 3.3
2018-Apr-18 00:06N 30°44' W 010°50'111.2
2018-Apr-18 00:00N 30°44' W 010°51'7111.3
2018-Apr-17 17:43N 31°07' W 012°10'  
Track history (hours):
 
Tides and Currents Weather Stations Pressure Air Temp Water Temp Dewpoint Dewpoint Depression Visibility Wind Speed Wind Dir Waves Ship Positions

Thomson Dream

Last reported at 2018-Apr-26 00:00 UTC. Time now 2018-Apr-26 00:18 UTC.
Position N 37°19' W 009°16'.

Length 243 m; draft 7.6 m.

Type: Ship. MMSI: 248480975.

Date/timePositionNaut miles runAvg speedWind from/ knotsBaromVisibWave heightAir tempDewpointWater temp
2018-Apr-26 00:00N 37°19' W 009°16'510.9
2018-Apr-25 23:31N 37°25' W 009°17'611.5
2018-Apr-25 23:00N 37°31' W 009°17'611.9
2018-Apr-25 22:30N 37°36' W 009°17'611.7
2018-Apr-25 22:00N 37°42' W 009°17'611.8
2018-Apr-25 21:30N 37°48' W 009°19'612.4
2018-Apr-25 21:00N 37°54' W 009°19'917.5
2018-Apr-25 20:30N 38°03' W 009°18'917.7
2018-Apr-25 20:00N 38°12' W 009°17'816.8
2018-Apr-25 19:30N 38°19' W 009°21'816.7
2018-Apr-25 19:00N 38°27' W 009°25'612.6
2018-Apr-25 18:30N 38°33' W 009°24'816.2
2018-Apr-25 18:00N 38°40' W 009°18'611.2
2018-Apr-25 17:30N 38°41' W 009°11'3 6.0
2018-Apr-25 16:58N 38°43' W 009°07'0 0.0
2018-Apr-25 16:30N 38°43' W 009°07'0 0.0
2018-Apr-25 15:59N 38°43' W 009°07'0 0.0
2018-Apr-25 15:30N 38°43' W 009°07'0 0.0
2018-Apr-25 15:00N 38°43' W 009°07'0 0.0
2018-Apr-25 14:29N 38°43' W 009°07'0 0.0
2018-Apr-25 13:58N 38°43' W 009°07'0 0.0
2018-Apr-25 13:30N 38°43' W 009°07'0 0.0
2018-Apr-25 12:59N 38°43' W 009°07'0 0.0
2018-Apr-25 12:29N 38°43' W 009°07'0 0.0
2018-Apr-25 11:59N 38°43' W 009°07'0 0.0
2018-Apr-25 11:29N 38°43' W 009°07'0 0.0
2018-Apr-25 10:58N 38°43' W 009°07'0 0.0
2018-Apr-25 10:26N 38°43' W 009°07'0 0.0
2018-Apr-25 09:58N 38°43' W 009°07'0 0.0
2018-Apr-25 09:30N 38°43' W 009°07'0 0.0
2018-Apr-25 09:00N 38°43' W 009°07'0 0.0
2018-Apr-25 08:29N 38°43' W 009°07'0 0.0
2018-Apr-25 07:59N 38°43' W 009°07'0 0.0
2018-Apr-25 07:29N 38°43' W 009°07'0 0.0
2018-Apr-25 06:59N 38°43' W 009°07'0 0.1
2018-Apr-25 06:30N 38°43' W 009°07'0 0.8
2018-Apr-25 06:01N 38°42' W 009°08'4 8.3
2018-Apr-25 05:31N 38°41' W 009°13'5 9.2
2018-Apr-25 05:01N 38°40' W 009°18'611.1
2018-Apr-25 04:30N 38°36' W 009°23'713.1
2018-Apr-25 04:01N 38°31' W 009°29'815.1
2018-Apr-25 03:31N 38°26' W 009°36'715.0
2018-Apr-25 03:01N 38°21' W 009°43'815.3
2018-Apr-25 02:30N 38°15' W 009°49'815.2
2018-Apr-25 02:01N 38°10' W 009°56'815.0
2018-Apr-25 01:30N 38°04' W 010°03'715.0
2018-Apr-25 01:00N 37°59' W 010°10'715.0
2018-Apr-25 00:31N 37°54' W 010°16'815.0
2018-Apr-25 00:00N 37°49' W 010°23'815.2
2018-Apr-24 23:30N 37°43' W 010°29'815.4
2018-Apr-24 23:01N 37°37' W 010°36'815.5
2018-Apr-24 22:31N 37°32' W 010°43'815.4
2018-Apr-24 21:59N 37°26' W 010°50'715.4
2018-Apr-24 21:30N 37°21' W 010°57'815.0
2018-Apr-24 21:00N 37°16' W 011°03'815.1
2018-Apr-24 20:30N 37°10' W 011°10'815.3
2018-Apr-24 19:58N 37°04' W 011°17'915.4
2018-Apr-24 19:23N 36°58' W 011°25'  
2018-Apr-22 00:58N 28°40' W 015°56'916.4
2018-Apr-22 00:26N 28°38' W 015°46'716.1
2018-Apr-22 00:00N 28°34' W 015°39'816.0
2018-Apr-21 23:30N 28°28' W 015°34'815.7
2018-Apr-21 22:59N 28°21' W 015°28'715.4
2018-Apr-21 22:30N 28°15' W 015°23'714.3
2018-Apr-21 21:59N 28°08' W 015°22'3 5.8
2018-Apr-21 21:30N 28°08' W 015°25'0 0.4
2018-Apr-21 20:59N 28°08' W 015°25'0 0.0
2018-Apr-21 20:26N 28°08' W 015°25'0 0.0
2018-Apr-21 19:59N 28°08' W 015°25'0 0.0
2018-Apr-21 19:29N 28°08' W 015°25'0 0.0
2018-Apr-21 18:59N 28°08' W 015°25'0 0.0
2018-Apr-21 18:29N 28°08' W 015°25'0 0.0
2018-Apr-21 17:47N 28°08' W 015°25'0 0.0
2018-Apr-21 17:29N 28°08' W 015°25'0 0.0
2018-Apr-21 16:59N 28°08' W 015°25'0 0.0
2018-Apr-21 16:29N 28°08' W 015°25'0 0.0
2018-Apr-21 15:35N 28°08' W 015°25'0 0.0
2018-Apr-21 15:29N 28°08' W 015°25'0 0.0
2018-Apr-21 14:50N 28°08' W 015°25'0 0.0
2018-Apr-21 14:20N 28°08' W 015°25'0 0.0
2018-Apr-21 13:50N 28°08' W 015°25'0 0.0
2018-Apr-21 13:23N 28°08' W 015°25'0 0.0
2018-Apr-21 12:53N 28°08' W 015°25'0 0.0
2018-Apr-21 12:20N 28°08' W 015°25'0 0.0
2018-Apr-21 11:50N 28°08' W 015°25'0 0.0
2018-Apr-21 11:20N 28°08' W 015°25'0 0.0
2018-Apr-21 10:50N 28°08' W 015°25'0 0.0
2018-Apr-21 10:26N 28°08' W 015°25'0 0.0
2018-Apr-21 09:56N 28°08' W 015°25'0 0.0
2018-Apr-21 09:26N 28°08' W 015°25'0 0.0
2018-Apr-21 08:56N 28°08' W 015°25'0 0.0
2018-Apr-21 08:14N 28°08' W 015°25'0 0.0
2018-Apr-21 07:59N 28°08' W 015°25'0 0.0
2018-Apr-21 07:29N 28°08' W 015°25'0 0.0
2018-Apr-21 06:59N 28°08' W 015°25'0 0.4
2018-Apr-21 06:30N 28°08' W 015°25'2 4.0
2018-Apr-21 06:00N 28°07' W 015°23'4 8.3
2018-Apr-21 05:30N 28°09' W 015°20'510.6
2018-Apr-21 05:00N 28°15' W 015°20'610.8
2018-Apr-21 04:30N 28°20' W 015°21'611.3
2018-Apr-21 04:00N 28°25' W 015°24'611.6
2018-Apr-21 03:30N 28°28' W 015°29'816.5
2018-Apr-21 03:00N 28°33' W 015°37'816.8
2018-Apr-21 02:30N 28°37' W 015°45'815.1
2018-Apr-21 01:59N 28°36' W 015°54'816.9
2018-Apr-21 01:30N 28°32' W 016°02'816.6
2018-Apr-21 01:01N 28°28' W 016°11'3 6.8
2018-Apr-21 00:31N 28°28' W 016°15'0 0.4
2018-Apr-21 00:00N 28°28' W 016°15'0 0.0
2018-Apr-20 23:30N 28°28' W 016°15'0 0.0
2018-Apr-20 23:00N 28°28' W 016°15'0 0.0
2018-Apr-20 22:30N 28°28' W 016°15'0 0.0
2018-Apr-20 22:00N 28°28' W 016°15'0 0.0
2018-Apr-20 21:30N 28°28' W 016°15'0 0.0
2018-Apr-20 21:00N 28°28' W 016°15'0 0.0
2018-Apr-20 20:30N 28°28' W 016°15'0 0.0
2018-Apr-20 20:00N 28°28' W 016°15'0 0.0
2018-Apr-20 19:30N 28°28' W 016°15'0 0.0
2018-Apr-20 18:57N 28°28' W 016°15'0 0.0
2018-Apr-20 18:30N 28°28' W 016°15'0 0.0
2018-Apr-20 18:00N 28°28' W 016°15'0 0.0
2018-Apr-20 17:30N 28°28' W 016°15'0 0.0
2018-Apr-20 17:00N 28°28' W 016°15'0 0.0
2018-Apr-20 16:30N 28°28' W 016°15'0 0.0
2018-Apr-20 16:00N 28°28' W 016°15'0 0.0
2018-Apr-20 15:30N 28°28' W 016°15'0 0.0
2018-Apr-20 15:00N 28°28' W 016°15'0 0.0
2018-Apr-20 14:30N 28°28' W 016°15'0 0.0
2018-Apr-20 14:00N 28°28' W 016°15'0 0.0
2018-Apr-20 13:30N 28°28' W 016°15'0 0.0
2018-Apr-20 13:00N 28°28' W 016°15'0 0.0
2018-Apr-20 12:30N 28°28' W 016°15'0 0.0
2018-Apr-20 11:59N 28°28' W 016°15'0 0.0
2018-Apr-20 11:29N 28°28' W 016°15'0 0.0
2018-Apr-20 10:59N 28°28' W 016°15'0 0.0
2018-Apr-20 10:29N 28°28' W 016°15'0 0.0
2018-Apr-20 09:58N 28°28' W 016°15'0 0.0
2018-Apr-20 09:28N 28°28' W 016°15'0 0.0
2018-Apr-20 08:58N 28°28' W 016°15'0 0.0
2018-Apr-20 08:28N 28°28' W 016°15'0 0.0
2018-Apr-20 07:58N 28°28' W 016°15'0 0.0
2018-Apr-20 07:28N 28°28' W 016°15'0 0.0
2018-Apr-20 06:58N 28°28' W 016°15'0 0.0
2018-Apr-20 06:28N 28°28' W 016°15'0 0.0
2018-Apr-20 05:58N 28°28' W 016°15'0 0.2
2018-Apr-20 05:30N 28°28' W 016°15'2 3.9
2018-Apr-20 05:00N 28°29' W 016°12'5 9.5
2018-Apr-20 04:30N 28°30' W 016°07'611.6
2018-Apr-20 04:00N 28°32' W 016°01'611.6
2018-Apr-20 03:30N 28°35' W 015°55'611.7
2018-Apr-20 02:59N 28°38' W 015°49'511.5
2018-Apr-20 02:30N 28°40' W 015°43'611.2
2018-Apr-20 02:00N 28°40' W 015°37'611.4
2018-Apr-20 01:30N 28°40' W 015°30'612.1
2018-Apr-20 01:00N 28°41' W 015°24'611.2
2018-Apr-20 00:30N 28°42' W 015°17'511.0
2018-Apr-20 00:00N 28°42' W 015°11'611.1
2018-Apr-19 23:30N 28°43' W 015°05'611.5
2018-Apr-19 23:00N 28°43' W 014°58'6814.9
2018-Apr-19 18:27N 28°51' W 013°41'715.6
2018-Apr-19 18:00N 28°55' W 013°34'4 7.5
2018-Apr-19 17:30N 28°58' W 013°32'0 0.2
2018-Apr-19 15:50N 28°58' W 013°32'0 0.0
2018-Apr-19 15:08N 28°58' W 013°32'0 0.0
2018-Apr-19 14:55N 28°58' W 013°32'0 0.0
2018-Apr-19 14:25N 28°58' W 013°32'0 0.0
2018-Apr-19 13:58N 28°58' W 013°32'0 0.0
2018-Apr-19 13:27N 28°58' W 013°32'0 0.0
2018-Apr-19 12:57N 28°58' W 013°32'0 0.0
2018-Apr-19 12:30N 28°58' W 013°32'0 0.0
2018-Apr-19 12:00N 28°58' W 013°32'0 0.0
2018-Apr-19 11:27N 28°58' W 013°32'0 0.0
2018-Apr-19 10:33N 28°58' W 013°32'0 0.0
2018-Apr-19 10:03N 28°58' W 013°32'0 0.0
2018-Apr-19 09:45N 28°58' W 013°32'0 0.0
2018-Apr-19 09:30N 28°58' W 013°32'0 0.0
2018-Apr-19 08:48N 28°58' W 013°32'0 0.0
2018-Apr-19 08:27N 28°58' W 013°32'0 0.0
2018-Apr-19 07:40N 28°58' W 013°32'0 0.1
2018-Apr-19 07:30N 28°58' W 013°32'1 2.0
2018-Apr-19 07:00N 28°57' W 013°31'611.6
2018-Apr-19 06:30N 28°59' W 013°25'611.4
2018-Apr-19 06:00N 29°02' W 013°19'611.5
2018-Apr-19 05:29N 29°04' W 013°13'611.5
2018-Apr-19 05:00N 29°07' W 013°07'815.0
2018-Apr-19 04:28N 29°11' W 012°59'817.0
2018-Apr-19 04:00N 29°14' W 012°51'816.2
2018-Apr-19 03:30N 29°16' W 012°42'816.1
2018-Apr-19 03:00N 29°19' W 012°33'916.2
2018-Apr-19 02:28N 29°23' W 012°25'716.0
2018-Apr-19 02:01N 29°26' W 012°17'816.9
2018-Apr-19 01:31N 29°29' W 012°08'917.9
2018-Apr-19 01:00N 29°32' W 011°58'815.9
2018-Apr-19 00:30N 29°35' W 011°50'815.6
2018-Apr-19 00:01N 29°38' W 011°42'815.6
2018-Apr-18 23:31N 29°41' W 011°33'815.6
2018-Apr-18 23:00N 29°44' W 011°25'815.6
2018-Apr-18 22:30N 29°47' W 011°17'815.7
2018-Apr-18 22:00N 29°51' W 011°08'815.9
2018-Apr-18 21:30N 29°54' W 011°00'815.9
2018-Apr-18 21:00N 29°57' W 010°52'815.8
2018-Apr-18 20:30N 29°60' W 010°43'816.0
2018-Apr-18 20:00N 30°03' W 010°35'816.1
2018-Apr-18 19:30N 30°06' W 010°26'816.1
2018-Apr-18 19:00N 30°09' W 010°18'816.1
2018-Apr-18 18:31N 30°12' W 010°09'815.6
2018-Apr-18 18:00N 30°14' W 010°00'714.1
2018-Apr-18 17:31N 30°16' W 009°52'57 3.3
2018-Apr-18 00:06N 30°44' W 010°50'111.2
2018-Apr-18 00:00N 30°44' W 010°51'7111.3
2018-Apr-17 17:43N 31°07' W 012°10'  

Dump ship's entire track history